Tyrone, Canada
Current Conditions -  °F | °C
As of 9:00 PM on Thursday 20 Nov 2014 (Local Time) from CYOO Reporting Station
Clear Clear  
Wind Chill:   Ceiling: Unl
Heat Index: 19°   Visibility: 9mi
Dew Point: 10°   Wind: 9mph
Humidity: 68%   Direction: 280°W
Pressure: 29.92"   Gusts: NA
Location:  44.02°N, 78.72°W
Report Text: CYOO 210200Z AUTO 28008KT 9SM CLR M07/M12 A2992 RMK SLP139
Loading
Personal Weather Stations






























Interactive Weather Map New forecast layout! Learn more

10-Day Weather Forecast

Advertisements
Track Severe Weather on mobile